Latest Weather Observations for Newcastle Nobbys

IDN60901

Issued at 4:31 pm EST Wednesday 1 July 2015 (issued every 10 minutes, with the page automatically refreshed every 10 minutes)

About weather observations | Map of Sydney area stations | Latest observations for Sydney area | Other Formats
Station Details ID: 061055 Name: NEWCASTLE NOBBYS SIGNAL STATION AWS Lat: -32.92 Lon: 151.80 Height: 33.0 m
Data from the previous 72 hours. | See also: Recent months at Newcastle Nobbys
Date/Time
EST
Tmp

°C
App
Tmp
°C
Dew
Point
°C
Rel
Hum
%
Delta-T

°C
Wind Press
QNH
hPa
Press
MSL
hPa
Rain
since
9 am
mm
Dir
 
Spd
km/h
Gust
km/h
Spd
kts
Gust
kts
01/04:30pm 15.5 14.5 10.9 74 2.4 SSE 7 9 4 5 - - 0.0
01/04:00pm 15.8 14.9 10.6 71 2.8 SE 6 9 3 5 - - 0.0
01/03:30pm 16.1 14.8 11.1 72 2.7 S 9 11 5 6 - - 0.0
01/03:00pm 16.3 15.1 11.5 73 2.6 S 9 15 5 8 - - 0.0
01/02:30pm 15.7 13.9 10.7 72 2.7 SSW 11 15 6 8 - - 0.0
01/02:00pm 15.7 13.2 11.1 74 2.5 SSW 15 20 8 11 - - 0.0
01/01:30pm 15.9 13.5 11.5 75 2.4 SSW 15 20 8 11 - - 0.0
01/01:00pm 15.3 12.9 11.3 77 2.1 SSW 15 20 8 11 - - 0.0
01/12:30pm 15.3 13.2 11.1 76 2.2 SSW 13 20 7 11 - - 0.0
01/12:00pm 15.2 12.5 11.8 80 1.8 SSW 17 22 9 12 - - 0.0
01/11:30am 14.9 12.5 11.5 80 1.8 SSW 15 22 8 12 - - 0.0
01/11:00am 15.2 13.2 11.4 78 2.0 SW 13 19 7 10 - - 0.0
01/10:30am 14.9 13.0 11.9 82 1.6 SW 13 20 7 11 - - 0.0
01/10:00am 14.6 12.9 11.2 80 1.8 SW 11 19 6 10 - - 0.0
01/09:30am 14.6 13.5 10.8 78 2.0 SW 7 11 4 6 - - 0.0
01/09:00am 14.5 13.0 10.5 77 2.1 WSW 9 15 5 8 - - 0.4
01/08:30am 14.8 12.9 10.6 76 2.2 WSW 11 19 6 10 - - 0.4
01/08:00am 14.5 13.2 11.1 80 1.8 WSW 9 15 5 8 - - 0.4
01/07:30am 13.3 12.3 11.0 86 1.2 WSW 7 11 4 6 - - 0.4
01/07:00am 12.5 11.5 10.9 90 0.8 WNW 7 11 4 6 - - 0.4
01/06:30am 12.6 11.5 10.8 89 0.9 NW 7 11 4 6 - - 0.4
01/06:00am 12.9 11.1 11.0 88 1.0 NNW 11 13 6 7 - - 0.2
01/05:30am 13.4 12.4 11.1 86 1.2 NW 7 9 4 5 - - 0.2
01/05:00am 13.1 11.4 11.3 89 1.0 NNW 11 11 6 6 - - 0.2
01/04:30am 13.2 12.2 11.1 87 1.1 NW 7 9 4 5 - - 0.2
01/04:00am 13.4 11.3 11.1 86 1.2 NNW 13 15 7 8 - - 0.2
01/03:30am 13.9 12.5 10.9 82 1.6 WNW 9 11 5 6 - - 0.2
01/03:00am 13.7 11.9 10.7 82 1.6 WNW 11 15 6 8 - - 0.2
01/02:30am 13.4 12.0 10.8 84 1.4 WNW 9 13 5 7 - - 0.2
01/02:00am 13.3 10.3 10.8 85 1.3 NW 17 20 9 11 - - 0.2
01/01:30am 13.1 9.8 11.0 87 1.1 WNW 19 22 10 12 - - 0.2
01/01:00am 12.7 10.2 11.1 90 0.8 WNW 15 17 8 9 - - 0.2
01/12:30am 12.9 10.8 11.0 88 1.0 NW 13 15 7 8 - - 0.2
01/12:00am 13.5 10.9 10.7 83 1.5 WNW 15 19 8 10 - - 0.0
 
Date/Time
EST
Tmp

°C
App
Tmp
°C
Dew
Point
°C
Rel
Hum
%
Delta-T

°C
Wind Press
QNH
hPa
Press
MSL
hPa
Rain
since
9 am
mm
Dir
 
Spd
km/h
Gust
km/h
Spd
kts
Gust
kts
30/11:30pm 13.3 10.7 10.7 84 1.4 NW 15 17 8 9 - - 0.0
30/11:00pm 13.1 10.8 10.6 85 1.3 WNW 13 17 7 9 - - 0.0
30/10:30pm 13.3 10.7 10.7 84 1.4 NW 15 17 8 9 - - 0.0
30/10:00pm 13.7 11.6 11.0 84 1.4 NW 13 15 7 8 - - 0.0
30/09:30pm 13.7 11.2 10.9 83 1.5 NW 15 19 8 10 - - 0.0
30/09:00pm 13.7 11.4 10.5 81 1.7 NW 13 15 7 8 - - 0.0
30/08:30pm 13.9 12.0 10.5 80 1.8 NW 11 13 6 7 - - 0.0
30/08:00pm 13.6 11.5 11.0 84 1.4 NW 13 17 7 9 - - 0.0
30/07:30pm 13.8 12.4 10.8 82 1.6 NW 9 9 5 5 - - 0.0
30/07:00pm 13.8 11.9 10.6 81 1.7 NW 11 15 6 8 - - 0.0
30/06:30pm 14.0 12.0 11.5 85 1.3 NNW 13 15 7 8 - - 0.0
30/06:00pm 14.0 11.9 11.2 83 1.5 N 13 15 7 8 - - 0.0
30/05:30pm 14.3 11.9 11.5 83 1.5 N 15 19 8 10 - - 0.0
30/05:00pm 14.4 12.4 11.6 83 1.5 NNE 13 17 7 9 - - 0.0
30/04:30pm 14.5 12.8 11.1 80 1.8 NNW 11 15 6 8 - - 0.0
30/04:00pm 14.8 12.7 11.0 78 2.0 NW 13 20 7 11 - - 0.0
30/03:30pm 14.5 12.1 11.3 81 1.7 NNW 15 19 8 10 - - 0.0
30/03:00pm 14.1 11.2 11.1 82 1.6 NNW 17 20 9 11 - - 0.0
30/02:30pm 14.2 11.4 11.5 84 1.4 NNW 17 19 9 10 - - 0.0
30/02:00pm 14.4 12.1 11.9 85 1.3 N 15 19 8 10 - - 0.0
30/01:30pm 14.1 12.8 11.3 83 1.5 NNW 9 13 5 7 - - 0.0
30/01:00pm 13.8 12.5 11.3 85 1.3 NNW 9 11 5 6 - - 0.0
30/12:30pm 14.4 14.2 11.9 85 1.3 NE 4 7 2 4 - - 0.0
30/12:00pm 13.0 12.4 11.6 91 0.7 WNW 6 9 3 5 - - 0.0
30/11:30am 12.3 9.6 11.7 96 0.3 NW 17 22 9 12 - - 0.0
30/11:00am 11.9 9.6 11.7 99 0.1 NW 15 19 8 10 - - 0.0
30/10:30am 11.1 6.8 10.9 99 0.1 NW 24 33 13 18 - - 0.0
30/10:00am 9.9 6.3 9.8 99 0.1 NW 19 24 10 13 - - 0.0
30/09:30am 9.3 5.9 9.2 99 0.0 NW 17 20 9 11 - - 0.0
30/09:00am 8.8 4.9 8.7 99 0.0 NW 19 24 10 13 - - 0.0
30/08:30am 8.7 5.2 8.6 99 0.0 NW 17 22 9 12 - - 0.0
30/08:00am 8.3 4.7 8.2 99 0.0 NW 17 20 9 11 - - 0.0
30/07:30am 8.3 5.0 8.2 99 0.0 NW 15 19 8 10 - - 0.0
30/07:00am 8.7 5.5 8.6 99 0.0 NW 15 19 8 10 - - 0.0
30/06:30am 8.6 5.0 8.5 99 0.0 NW 17 20 9 11 - - 0.0
30/06:00am 8.9 5.8 8.8 99 0.0 NW 15 19 8 10 - - 0.0
30/05:30am 9.4 6.4 9.3 99 0.0 NW 15 17 8 9 - - 0.0
30/05:00am 9.1 5.7 9.0 99 0.0 NW 17 20 9 11 - - 0.0
30/04:30am 9.0 5.5 8.7 98 0.1 NW 17 20 9 11 - - 0.0
30/04:00am 9.4 6.4 9.1 98 0.1 NW 15 20 8 11 - - 0.0
30/03:30am 10.8 8.5 10.3 97 0.3 NW 13 15 7 8 - - 0.0
30/03:00am 10.7 9.1 10.1 96 0.3 NW 9 11 5 6 - - 0.0
30/02:30am 12.1 10.7 11.0 93 0.6 NW 9 9 5 5 - - 0.0
30/02:00am 12.8 12.1 11.4 91 0.7 NW 6 9 3 5 - - 0.0
30/01:30am 13.1 12.5 11.7 91 0.7 NNW 6 7 3 4 - - 0.0
30/01:00am 13.5 13.3 11.9 90 0.9 NW 4 6 2 3 - - 0.0
30/12:30am 13.4 13.3 12.0 91 0.8 NW 4 4 2 2 - - 0.0
30/12:00am 13.5 13.0 12.1 91 0.8 NW 6 6 3 3 - - 0.0
 
Date/Time
EST
Tmp

°C
App
Tmp
°C
Dew
Point
°C
Rel
Hum
%
Delta-T

°C
Wind Press
QNH
hPa
Press
MSL
hPa
Rain
since
9 am
mm
Dir
 
Spd
km/h
Gust
km/h
Spd
kts
Gust
kts
29/11:30pm 13.5 13.4 12.2 92 0.7 NW 4 6 2 3 - - 0.0
29/11:00pm 13.3 12.8 11.9 91 0.8 WNW 6 6 3 3 - - 0.0
29/10:30pm 13.7 13.5 11.9 89 1.0 NW 4 6 2 3 - - 0.0
29/10:00pm 13.9 13.3 11.8 87 1.1 WNW 6 7 3 4 - - 0.0
29/09:30pm 14.9 14.4 12.2 84 1.5 WNW 6 6 3 3 - - 0.0
29/09:00pm 16.4 16.3 13.3 82 1.7 WNW 6 11 3 6 - - 0.0
29/08:30pm 16.8 15.9 12.5 76 2.4 NE 9 15 5 8 - - 0.0
29/08:00pm 16.4 15.9 12.8 79 2.0 NE 7 9 4 5 - - 0.0
29/07:30pm 16.5 16.1 13.0 80 2.0 NNE 7 11 4 6 - - 0.0
29/07:00pm 16.6 15.4 11.7 73 2.7 NE 9 13 5 7 - - 0.0
29/06:30pm 16.6 15.5 12.0 74 2.5 NE 9 13 5 7 - - 0.0
29/06:00pm 16.6 15.1 12.0 74 2.5 NE 11 13 6 7 - - 0.0
29/05:30pm 16.6 15.3 11.3 71 2.9 NE 9 13 5 7 - - 0.0
29/05:00pm 16.7 14.9 10.8 68 3.2 ENE 11 13 6 7 - - 0.0
29/04:30pm 17.1 15.0 11.2 68 3.2 E 13 17 7 9 - - 0.0
29/04:00pm 17.5 15.3 10.9 65 3.6 E 13 17 7 9 - - 0.0
29/03:30pm 17.5 15.4 11.1 66 3.5 ESE 13 15 7 8 - - 0.0
29/03:00pm 17.7 16.4 11.3 66 3.5 E 9 13 5 7 - - 0.0
29/02:30pm 17.5 16.7 11.1 66 3.5 ESE 6 9 3 5 - - 0.0
29/02:00pm 17.6 17.5 12.1 70 3.0 SE 4 6 2 3 - - 0.0
29/01:30pm 17.8 18.3 12.9 73 2.7 SE 2 4 1 2 - - 0.0
29/01:00pm 17.4 17.2 11.9 70 3.0 SE 4 6 2 3 - - 0.0
29/12:30pm 17.1 16.6 10.9 67 3.3 SE 4 6 2 3 - - 0.0
29/12:00pm 18.3 18.2 10.9 62 4.0 NNE 2 4 1 2 - - 0.0
29/11:30am 17.9 17.6 11.5 66 3.5 N 4 7 2 4 - - 0.0
29/11:00am 17.2 16.4 11.2 68 3.2 NW 6 7 3 4 - - 0.0
29/10:30am 15.8 14.4 11.0 73 2.6 WNW 9 13 5 7 - - 0.0
29/10:00am 14.1 11.5 9.5 74 2.4 NW 13 15 7 8 - - 0.0
29/09:30am 13.1 10.3 9.9 81 1.6 NW 15 17 8 9 - - 0.0
29/09:00am 11.8 9.2 9.2 84 1.3 NW 13 17 7 9 - - 0.0
29/08:30am 10.5 7.8 8.8 89 0.8 NW 13 15 7 8 - - 0.0
29/08:00am 9.7 6.5 8.6 93 0.5 NW 15 20 8 11 - - 0.0
29/07:30am 9.5 7.1 8.7 95 0.4 NW 11 15 6 8 - - 0.0
29/07:00am 9.5 7.5 8.7 95 0.4 WNW 9 11 5 6 - - 0.0
29/06:30am 9.8 7.9 9.0 95 0.4 NW 9 13 5 7 - - 0.0
29/06:00am 10.2 8.0 9.3 94 0.4 NW 11 13 6 7 - - 0.0
29/05:30am 10.2 8.3 9.1 93 0.5 NW 9 11 5 6 - - 0.0
29/05:00am 10.5 8.7 9.6 94 0.5 NW 9 13 5 7 - - 0.0
29/04:30am 10.6 8.9 9.7 94 0.5 NW 9 13 5 7 - - 0.0
29/04:00am 10.8 8.7 9.7 93 0.6 NW 11 13 6 7 - - 0.0
29/03:30am 10.9 9.2 9.8 93 0.6 NW 9 13 5 7 - - 0.0
29/03:00am 11.2 9.5 10.0 92 0.6 WNW 9 11 5 6 - - 0.0
29/02:30am 11.5 9.5 10.2 92 0.7 WNW 11 15 6 8 - - 0.0
29/02:00am 11.9 10.5 10.8 93 0.6 NW 9 11 5 6 - - 0.0
29/01:30am 12.2 11.2 10.9 92 0.7 NW 7 9 4 5 - - 0.0
29/01:00am 12.4 11.4 11.1 92 0.7 NW 7 9 4 5 - - 0.0
29/12:30am 12.0 10.5 10.6 91 0.7 WNW 9 11 5 6 - - 0.0
29/12:00am 12.6 10.5 11.0 90 0.8 NW 13 15 7 8 - - 0.0
 
Date/Time
EST
Tmp

°C
App
Tmp
°C
Dew
Point
°C
Rel
Hum
%
Delta-T

°C
Wind Press
QNH
hPa
Press
MSL
hPa
Rain
since
9 am
mm
Dir
 
Spd
km/h
Gust
km/h
Spd
kts
Gust
kts
28/11:30pm 12.7 10.9 10.8 88 1.0 NW 11 13 6 7 - - 0.0
28/11:00pm 13.0 11.2 10.9 87 1.1 NW 11 13 6 7 - - 0.0
28/10:30pm 13.2 11.9 11.3 88 1.0 NW 9 11 5 6 - - 0.0
28/10:00pm 13.4 12.2 11.5 88 1.0 NW 9 11 5 6 - - 0.0
28/09:30pm 13.6 13.0 11.7 88 1.0 NW 6 7 3 4 - - 0.0
28/09:00pm 13.4 12.2 11.6 89 1.0 WNW 9 9 5 5 - - 0.0
28/08:30pm 13.6 12.8 11.8 89 1.0 WNW 7 9 4 5 - - 0.0
28/08:00pm 13.8 13.0 11.8 88 1.1 WNW 7 9 4 5 - - 0.0
28/07:30pm 14.1 13.0 12.0 87 1.1 W 9 11 5 6 - - 0.0
28/07:00pm 14.4 13.4 12.3 87 1.1 W 9 11 5 6 - - 0.0
28/06:30pm 15.0 14.1 12.5 85 1.4 W 9 11 5 6 - - 0.0
28/06:00pm 15.3 14.7 12.4 83 1.6 WSW 7 9 4 5 - - 0.0
28/05:30pm 15.5 14.9 12.4 82 1.7 WSW 7 9 4 5 - - 0.0
28/05:00pm 15.9 15.0 12.5 80 1.9 SSW 9 15 5 8 - - 0.0

Latest Capital City Observations: Canberra | Sydney | Melbourne | Brisbane | Adelaide | Perth | Hobart | Darwin

Other Formats:

Comma delimited format used in spreadsheet applications
http://www.bom.gov.au/fwo/IDN60901/IDN60901.94774.axf

JavaScript Object Notation format (JSON) in row-major order
http://www.bom.gov.au/fwo/IDN60901/IDN60901.94774.json